Time;durP1;ratioP1;P1;durP2;ratioP2;P2;SDS_P1;SDS_P2;PMS_P1;PMS_P2;Temp;Humidity;BMP_temperature;BMP_pressure;BME280_temperature;BME280_humidity;BME280_pressure;Samples;Min_cycle;Max_cycle;Signal;HPM_P1;HPM_P2
2021/04/20 00:01:43;;;;;;;43.60;31.25;;;282.00;2048.00;;;;;;5061081;28;20040;-76
2021/04/20 00:04:09;;;;;;;42.53;30.33;;;282.00;2022.40;;;;;;5061626;28;20159;-76
2021/04/20 00:06:35;;;;;;;40.90;30.33;;;282.00;2022.40;;;;;;5059729;28;20036;-78
2021/04/20 00:09:04;;;;;;;45.03;30.50;;;282.10;2022.40;;;;;;5060716;28;20016;-78
2021/04/20 00:11:29;;;;;;;40.63;29.98;;;282.00;2022.40;;;;;;5061617;28;20355;-79
2021/04/20 00:13:55;;;;;;;40.83;29.77;;;282.00;2022.40;;;;;;5058954;28;20092;-77
2021/04/20 00:16:21;;;;;;;44.72;31.13;;;282.00;2022.40;;;;;;5060909;28;20037;-77
2021/04/20 00:18:46;;;;;;;43.83;31.80;;;282.00;2022.40;;;;;;5061106;28;20033;-77
2021/04/20 00:21:12;;;;;;;43.45;32.10;;;281.90;2048.00;;;;;;5058089;28;20020;-76
2021/04/20 00:23:38;;;;;;;44.38;31.02;;;281.80;2048.00;;;;;;5060346;28;20028;-77
2021/04/20 00:26:04;;;;;;;42.10;30.02;;;281.90;2048.00;;;;;;5060117;28;20031;-76
2021/04/20 00:28:29;;;;;;;45.08;31.35;;;281.90;2048.00;;;;;;5059837;28;20877;-79
2021/04/20 00:30:56;;;;;;;44.92;30.80;;;281.90;2048.00;;;;;;5061521;28;20024;-78
2021/04/20 00:33:21;;;;;;;47.03;31.92;;;281.90;2048.00;;;;;;5060000;28;20485;-77
2021/04/20 00:35:48;;;;;;;41.33;30.70;;;281.80;2048.00;;;;;;5058298;28;20115;-76
2021/04/20 00:38:14;;;;;;;44.65;30.52;;;281.80;2048.00;;;;;;5061724;28;20037;-77
2021/04/20 00:40:39;;;;;;;39.78;29.55;;;281.70;2073.60;;;;;;5059621;28;20028;-77
2021/04/20 00:43:06;;;;;;;42.55;30.92;;;281.70;2073.60;;;;;;5060038;28;20082;-76
2021/04/20 00:45:34;;;;;;;41.35;31.15;;;281.60;2048.00;;;;;;5060436;28;20478;-77
2021/04/20 00:48:03;;;;;;;41.85;29.77;;;281.80;2048.00;;;;;;5061293;28;20029;-78
2021/04/20 00:50:33;;;;;;;40.40;29.58;;;281.80;2048.00;;;;;;5060099;28;20091;-78
2021/04/20 00:52:59;;;;;;;40.45;29.80;;;281.80;2048.00;;;;;;5061372;28;20056;-77
2021/04/20 00:55:25;;;;;;;40.65;29.42;;;281.70;2048.00;;;;;;5059779;28;20017;-77
2021/04/20 00:57:51;;;;;;;39.55;29.30;;;281.70;2048.00;;;;;;5059081;28;20094;-77
2021/04/20 01:00:29;;;;;;;39.25;28.88;;;281.70;2048.00;;;;;;5061211;28;20028;-76
2021/04/20 01:02:55;;;;;;;43.78;30.08;;;281.70;2048.00;;;;;;5060974;28;20040;-79
2021/04/20 01:05:26;;;;;;;41.72;30.50;;;281.70;2048.00;;;;;;5060718;28;20078;-77
2021/04/20 01:08:04;;;;;;;38.75;28.77;;;281.70;2048.00;;;;;;5068891;28;20043;-77
2021/04/20 01:10:32;;;;;;;41.13;29.80;;;281.60;2073.60;;;;;;5069464;28;20025;-76
2021/04/20 01:12:58;;;;;;;39.13;28.65;;;256.90;2048.00;;;;;;5071007;28;20055;-81
2021/04/20 01:15:24;;;;;;;38.95;29.13;;;281.60;2073.60;;;;;;5069190;28;20064;-81
2021/04/20 01:17:50;;;;;;;41.70;29.45;;;281.60;2073.60;;;;;;5070595;28;20185;-76
2021/04/20 01:20:16;;;;;;;40.63;28.67;;;281.70;2048.00;;;;;;5070514;28;20519;-78
2021/04/20 01:22:44;;;;;;;35.50;27.52;;;281.60;2048.00;;;;;;5070380;28;20531;-78
2021/04/20 01:25:12;;;;;;;37.42;27.98;;;281.60;2073.60;;;;;;5070538;28;20487;-78
2021/04/20 01:27:38;;;;;;;37.58;27.90;;;281.60;2048.00;;;;;;5070710;28;20057;-79
2021/04/20 01:30:09;;;;;;;39.53;28.92;;;281.60;2073.60;;;;;;5070547;28;20028;-78
2021/04/20 01:32:43;;;;;;;41.90;28.73;;;256.90;2048.00;;;;;;5070855;28;20112;-77
2021/04/20 01:35:11;;;;;;;43.50;29.08;;;256.80;2048.00;;;;;;5070573;28;20154;-79
2021/04/20 01:37:36;;;;;;;42.92;29.15;;;256.80;2048.00;;;;;;5070826;28;20032;-81
2021/04/20 01:40:07;;;;;;;45.97;28.52;;;256.90;2048.00;;;;;;5070542;28;20016;-79
2021/04/20 01:42:33;;;;;;;43.58;28.80;;;256.90;2022.40;;;;;;5070265;28;20035;-75
2021/04/20 01:44:59;;;;;;;41.47;28.05;;;256.80;2048.00;;;;;;5070526;28;20024;-80
2021/04/20 01:47:26;;;;;;;41.15;28.48;;;256.80;2048.00;;;;;;5070635;28;20032;-79
2021/04/20 01:49:53;;;;;;;40.00;28.08;;;256.80;2022.40;;;;;;5070532;28;20401;-81
2021/04/20 01:52:19;;;;;;;40.60;29.67;;;256.80;2022.40;;;;;;5071167;28;20100;-83
2021/04/20 01:54:45;;;;;;;42.97;29.95;;;256.80;2022.40;;;;;;5070570;28;20051;-78
2021/04/20 01:57:12;;;;;;;40.67;29.20;;;256.80;2048.00;;;;;;5070500;28;20024;-77
2021/04/20 01:59:38;;;;;;;37.63;28.73;;;256.80;2048.00;;;;;;5071001;28;20100;-80
2021/04/20 02:02:04;;;;;;;39.42;28.90;;;256.80;2022.40;;;;;;5071750;28;20115;-78
2021/04/20 02:04:30;;;;;;;40.60;29.08;;;256.90;2048.00;;;;;;5071545;28;20034;-81
2021/04/20 02:06:56;;;;;;;40.45;28.25;;;256.90;2022.40;;;;;;5070877;28;20027;-86
2021/04/20 02:09:21;;;;;;;40.40;29.48;;;256.80;2048.00;;;;;;5070836;28;20104;-82
2021/04/20 02:11:47;;;;;;;37.65;27.42;;;256.80;2048.00;;;;;;5070803;28;20028;-77
2021/04/20 02:14:13;;;;;;;41.20;29.27;;;256.80;2048.00;;;;;;5070160;28;20024;-80
2021/04/20 02:16:41;;;;;;;39.70;29.02;;;256.80;2048.00;;;;;;5070008;28;20040;-77
2021/04/20 02:19:12;;;;;;;41.10;30.48;;;256.80;2022.40;;;;;;5070235;28;20029;-79
2021/04/20 02:21:39;;;;;;;38.58;28.85;;;;;;;;;;5070192;28;20020;-77
2021/04/20 02:24:12;;;;;;;42.08;30.20;;;256.80;2048.00;;;;;;5068888;28;20031;-78
2021/04/20 02:26:38;;;;;;;38.50;28.58;;;256.80;2048.00;;;;;;5070162;28;20355;-81
2021/04/20 02:29:06;;;;;;;43.95;31.75;;;256.80;2048.00;;;;;;5069846;28;20375;-78
2021/04/20 02:31:40;;;;;;;47.55;33.08;;;256.80;2048.00;;;;;;5070774;28;20016;-78
2021/04/20 02:34:07;;;;;;;43.22;31.75;;;256.80;2048.00;;;;;;5073699;28;20067;-78
2021/04/20 02:36:38;;;;;;;44.58;32.63;;;256.80;2048.00;;;;;;5073503;28;20093;-78
2021/04/20 02:39:05;;;;;;;41.45;32.63;;;256.70;2048.00;;;;;;5073527;28;20359;-79
2021/04/20 02:41:31;;;;;;;45.00;32.90;;;256.80;2073.60;;;;;;5073235;28;20052;-78
2021/04/20 02:44:02;;;;;;;43.63;32.25;;;256.80;2048.00;;;;;;5073345;28;20043;-77
2021/04/20 02:46:28;;;;;;;40.50;29.60;;;281.60;2073.60;;;;;;5073307;28;20021;-78
2021/04/20 02:48:54;;;;;;;39.05;28.90;;;256.90;2048.00;;;;;;5073227;28;20032;-80
2021/04/20 02:51:20;;;;;;;38.67;27.90;;;256.90;2048.00;;;;;;5073150;28;20375;-77
2021/04/20 02:53:47;;;;;;;35.15;26.75;;;256.90;2048.00;;;;;;5073315;28;20025;-78
2021/04/20 02:56:15;;;;;;;34.53;26.13;;;256.80;2048.00;;;;;;5073025;28;20024;-82
2021/04/20 02:58:43;;;;;;;36.65;26.20;;;256.80;2048.00;;;;;;5073043;28;20020;-79
2021/04/20 03:01:18;;;;;;;32.25;24.90;;;256.90;2022.40;;;;;;5073229;28;20394;-77
2021/04/20 03:03:48;;;;;;;30.17;24.27;;;256.80;2022.40;;;;;;5072816;28;20613;-79
2021/04/20 03:06:14;;;;;;;36.08;25.33;;;256.90;2022.40;;;;;;5072990;28;20021;-83
2021/04/20 03:08:42;;;;;;;32.70;24.52;;;256.80;2022.40;;;;;;5072771;28;20020;-75
2021/04/20 03:11:14;;;;;;;35.83;25.50;;;256.80;2048.00;;;;;;5073093;28;20019;-80
2021/04/20 03:13:44;;;;;;;34.85;25.13;;;256.80;2048.00;;;;;;5071544;28;20035;-81
2021/04/20 03:16:16;;;;;;;33.58;24.45;;;256.70;2048.00;;;;;;5072476;28;20494;-81
2021/04/20 03:18:42;;;;;;;33.30;24.52;;;256.80;2048.00;;;;;;5072771;28;20035;-78
2021/04/20 03:21:11;;;;;;;31.50;23.75;;;256.80;2048.00;;;;;;5072954;28;20031;-82
2021/04/20 03:23:37;;;;;;;33.00;25.08;;;256.80;2022.40;;;;;;5072698;28;20111;-81
2021/04/20 03:26:17;;;;;;;32.85;24.83;;;256.90;2022.40;;;;;;5072435;28;20119;-84
2021/04/20 03:28:43;;;;;;;33.30;25.17;;;256.80;2022.40;;;;;;5072531;28;20066;-78
2021/04/20 03:31:08;;;;;;;30.20;23.63;;;256.80;2022.40;;;;;;5072704;28;20020;-81
2021/04/20 03:33:40;;;;;;;31.77;23.92;;;256.90;2048.00;;;;;;5072726;28;20539;-76
2021/04/20 03:36:12;;;;;;;;;;;256.90;2022.40;;;;;;5073039;28;20021;-79
2021/04/20 03:38:54;;;;;;;33.85;24.38;;;256.90;2022.40;;;;;;5071370;28;19912;-77
2021/04/20 03:41:29;;;;;;;31.75;25.65;;;256.80;2022.40;;;;;;5072277;28;20478;-74
2021/04/20 03:43:59;;;;;;;35.85;24.75;;;256.90;2048.00;;;;;;5071837;28;20036;-80
2021/04/20 03:46:37;;;;;;;33.43;25.20;;;256.90;2022.40;;;;;;5072268;28;20024;-80
2021/04/20 03:49:21;;;;;;;31.38;24.13;;;256.70;2048.00;;;;;;5071995;28;20270;-79
2021/04/20 03:51:51;;;;;;;33.00;24.02;;;256.80;2048.00;;;;;;5072226;28;20090;-80
2021/04/20 03:54:18;;;;;;;34.08;23.95;;;256.70;2048.00;;;;;;5072333;28;20028;-82
2021/04/20 03:56:47;;;;;;;32.70;24.45;;;256.80;2048.00;;;;;;5072019;28;20097;-75
2021/04/20 03:59:16;;;;;;;35.40;23.63;;;256.70;2048.00;;;;;;5071708;28;20127;-77
2021/04/20 04:01:45;;;;;;;29.52;23.20;;;256.90;2048.00;;;;;;5071640;28;20099;-75
2021/04/20 04:04:16;;;;;;;35.85;24.10;;;256.90;2022.40;;;;;;5071581;28;20079;-74
2021/04/20 04:06:43;;;;;;;31.80;23.33;;;256.90;2048.00;;;;;;5071685;28;20077;-78
2021/04/20 04:09:13;;;;;;;33.40;23.65;;;256.50;2048.00;;;;;;5071631;28;20021;-75
2021/04/20 04:11:58;;;;;;;30.73;23.15;;;256.90;2048.00;;;;;;5071717;28;20052;-76
2021/04/20 04:14:27;;;;;;;31.80;22.75;;;256.80;2048.00;;;;;;5071465;28;20020;-80
2021/04/20 04:16:59;;;;;;;30.35;23.35;;;256.90;2048.00;;;;;;5069904;28;20040;-76
2021/04/20 04:19:28;;;;;;;31.67;22.38;;;256.80;2048.00;;;;;;5070232;28;20035;-78
2021/04/20 04:22:04;;;;;;;32.05;23.27;;;256.90;2022.40;;;;;;5069404;28;20048;-74
2021/04/20 04:24:36;;;;;;;35.10;23.27;;;256.90;2022.40;;;;;;5070948;28;20064;-75
2021/04/20 04:27:05;;;;;;;33.45;23.42;;;256.90;2022.40;;;;;;5071249;28;20470;-75
2021/04/20 04:29:32;;;;;;;30.60;23.73;;;256.90;2022.40;;;;;;5070892;28;20486;-76
2021/04/20 04:32:00;;;;;;;30.85;23.13;;;256.80;2022.40;;;;;;5071331;28;20360;-75
2021/04/20 04:34:27;;;;;;;31.65;23.77;;;256.80;2048.00;;;;;;5069949;28;20035;-75
2021/04/20 04:36:53;;;;;;;29.83;23.23;;;256.90;2048.00;;;;;;5069666;28;20016;-75
2021/04/20 04:39:19;;;;;;;32.97;23.13;;;256.90;2048.00;;;;;;5071229;28;20039;-75
2021/04/20 04:41:49;;;;;;;30.85;21.73;;;256.90;2048.00;;;;;;5070914;28;20021;-75
2021/04/20 04:44:15;;;;;;;28.55;22.67;;;256.90;2022.40;;;;;;5070848;28;20032;-76
2021/04/20 04:46:43;;;;;;;32.72;24.10;;;256.90;2048.00;;;;;;5070781;28;20032;-74
2021/04/20 04:49:11;;;;;;;30.55;22.45;;;256.90;2022.40;;;;;;5071449;28;20390;-79
2021/04/20 04:51:38;;;;;;;31.15;22.67;;;256.80;2022.40;;;;;;5071674;28;20042;-81
2021/04/20 04:54:08;;;;;;;33.80;22.67;;;256.80;2048.00;;;;;;5070981;28;20407;-80
2021/04/20 04:56:35;;;;;;;32.72;23.10;;;256.90;2048.00;;;;;;5071146;28;20100;-77
2021/04/20 04:59:04;;;;;;;34.05;23.25;;;256.90;2048.00;;;;;;5070712;28;20029;-74
2021/04/20 05:01:31;;;;;;;31.10;22.70;;;256.90;2022.40;;;;;;5070754;28;20016;-78
2021/04/20 05:04:09;;;;;;;32.22;23.15;;;256.90;2022.40;;;;;;5070836;28;20036;-78
2021/04/20 05:06:46;;;;;;;32.03;23.30;;;256.90;2022.40;;;;;;5070792;28;20017;-78
2021/04/20 05:09:16;;;;;;;31.75;22.60;;;281.60;2048.00;;;;;;5070712;28;20025;-79
2021/04/20 05:11:44;;;;;;;32.05;22.50;;;281.60;2048.00;;;;;;5070562;28;20024;-78
2021/04/20 05:14:12;;;;;;;34.20;23.45;;;256.90;2022.40;;;;;;5070878;28;20723;-80
2021/04/20 05:16:40;;;;;;;33.28;22.30;;;281.60;2048.00;;;;;;5069220;28;20113;-80
2021/04/20 05:19:08;;;;;;;28.77;21.92;;;256.90;2022.40;;;;;;5070712;28;20032;-80
2021/04/20 05:21:34;;;;;;;31.40;22.10;;;256.90;2048.00;;;;;;5070478;28;20020;-78
2021/04/20 05:23:59;;;;;;;28.38;21.80;;;256.90;2048.00;;;;;;5070640;28;20036;-76
2021/04/20 05:26:29;;;;;;;29.23;22.80;;;256.90;2048.00;;;;;;5070727;28;20035;-78
2021/04/20 05:29:03;;;;;;;27.45;21.63;;;256.90;2048.00;;;;;;5070489;28;20077;-79
2021/04/20 05:31:29;;;;;;;27.73;21.77;;;256.90;2048.00;;;;;;5070800;28;20099;-80
2021/04/20 05:34:05;;;;;;;31.65;23.33;;;256.90;2048.00;;;;;;5071007;28;20522;-83
2021/04/20 05:36:32;;;;;;;31.65;22.77;;;281.60;2073.60;;;;;;5072516;28;20021;-74
2021/04/20 05:39:01;;;;;;;30.05;22.92;;;256.90;2048.00;;;;;;5071720;28;20024;-74
2021/04/20 05:41:29;;;;;;;31.08;21.52;;;281.60;2073.60;;;;;;5071416;28;20104;-75
2021/04/20 05:43:57;;;;;;;27.15;22.38;;;281.70;2073.60;;;;;;5069976;28;20032;-73
2021/04/20 05:46:23;;;;;;;30.35;22.52;;;281.70;2073.60;;;;;;5071293;28;20029;-74
2021/04/20 05:48:51;;;;;;;33.75;22.20;;;281.70;2048.00;;;;;;5071000;28;20031;-74
2021/04/20 05:51:17;;;;;;;24.98;20.83;;;281.60;2073.60;;;;;;5070548;28;20052;-75
2021/04/20 05:53:44;;;;;;;30.67;20.98;;;281.60;2073.60;;;;;;5070836;28;20021;-76
2021/04/20 05:56:11;;;;;;;28.85;21.23;;;281.60;2073.60;;;;;;5070574;28;20020;-74
2021/04/20 05:58:37;;;;;;;27.65;20.83;;;281.60;2073.60;;;;;;5069236;28;20048;-75
2021/04/20 06:01:04;;;;;;;35.83;25.35;;;256.90;2048.00;;;;;;5070331;28;20029;-75
2021/04/20 06:03:33;;;;;;;28.40;21.98;;;281.60;2073.60;;;;;;5070056;28;20033;-75
2021/04/20 06:06:01;;;;;;;30.33;21.55;;;281.60;2073.60;;;;;;5070405;28;20044;-75
2021/04/20 06:08:28;;;;;;;27.65;20.67;;;281.60;2073.60;;;;;;5072932;28;20024;-75
2021/04/20 06:10:54;;;;;;;28.77;21.60;;;281.60;2073.60;;;;;;5073770;28;20157;-75
2021/04/20 06:13:20;;;;;;;30.20;20.52;;;281.70;2073.60;;;;;;5073750;28;20056;-75
2021/04/20 06:15:46;;;;;;;35.50;22.13;;;281.80;2073.60;;;;;;5073803;28;20544;-74
2021/04/20 06:18:12;;;;;;;30.42;21.90;;;281.70;2073.60;;;;;;5073775;28;20047;-74
2021/04/20 06:20:38;;;;;;;30.02;22.50;;;281.80;2073.60;;;;;;5073689;28;20016;-74
2021/04/20 06:23:05;;;;;;;27.85;21.42;;;281.80;2073.60;;;;;;5073496;28;20033;-74
2021/04/20 06:25:32;;;;;;;29.33;22.23;;;281.90;2048.00;;;;;;5072124;28;20024;-74
2021/04/20 06:27:58;;;;;;;34.17;26.38;;;281.90;2048.00;;;;;;5073679;28;20124;-74
2021/04/20 06:30:24;;;;;;;33.88;23.92;;;281.80;2073.60;;;;;;5072419;28;20033;-74
2021/04/20 06:32:51;;;;;;;33.72;24.25;;;281.90;2048.00;;;;;;5073318;28;20078;-75
2021/04/20 06:35:19;;;;;;;31.95;24.10;;;281.90;2048.00;;;;;;5073674;28;20459;-74
2021/04/20 06:37:47;;;;;;;33.05;25.40;;;281.90;2073.60;;;;;;5073583;28;20021;-75
2021/04/20 06:40:23;;;;;;;33.15;24.10;;;282.00;2048.00;;;;;;5071824;28;20027;-75
2021/04/20 06:43:00;;;;;;;32.20;24.08;;;282.00;2048.00;;;;;;5073284;28;20032;-75
2021/04/20 06:45:49;;;;;;;32.63;23.10;;;282.00;2048.00;;;;;;5073304;28;20510;-74
2021/04/20 06:48:31;;;;;;;33.25;23.88;;;282.10;2048.00;;;;;;5073272;28;20060;-75
2021/04/20 06:50:59;;;;;;;34.50;23.73;;;282.10;2048.00;;;;;;5073197;28;20021;-74
2021/04/20 06:53:28;;;;;;;39.10;28.02;;;282.10;2048.00;;;;;;5073276;28;20550;-74
2021/04/20 06:56:06;;;;;;;31.52;24.38;;;282.30;2048.00;;;;;;5071531;28;20542;-74
2021/04/20 06:58:31;;;;;;;32.13;23.38;;;282.30;2022.40;;;;;;5072777;28;20498;-74
2021/04/20 07:01:00;;;;;;;30.35;23.13;;;282.40;1996.80;;;;;;5073061;28;20024;-74
2021/04/20 07:04:09;;;;;;;31.27;22.63;;;282.30;2022.40;;;;;;5072815;28;20028;-75
2021/04/20 07:07:01;;;;;;;35.30;24.52;;;282.30;2022.40;;;;;;5072845;28;20021;-74
2021/04/20 07:09:28;;;;;;;;;;;282.30;2022.40;;;;;;5073279;28;20518;-76
2021/04/20 07:11:55;;;;;;;31.50;23.55;;;282.40;2022.40;;;;;;5072649;28;19957;-74
2021/04/20 07:14:33;;;;;;;35.95;27.77;;;282.40;1996.80;;;;;;5065621;28;20071;-75
2021/04/20 07:17:29;;;;;;;32.28;24.35;;;282.50;1996.80;;;;;;5062019;28;20035;-74
2021/04/20 07:20:23;;;;;;;32.25;23.98;;;282.40;2022.40;;;;;;5024947;28;20120;-75
2021/04/20 07:23:12;;;;;;;35.53;25.98;;;282.40;1996.80;;;;;;5028941;28;20029;-75
2021/04/20 07:26:06;;;;;;;28.73;21.40;;;282.40;1996.80;;;;;;4971124;28;20118;-75
2021/04/20 07:28:56;;;;;;;32.75;24.65;;;282.50;1971.20;;;;;;4968298;28;20015;-75
2021/04/20 07:31:29;;;;;;;33.15;23.73;;;307.20;1996.80;;;;;;4970816;28;20117;-74
2021/04/20 07:34:10;;;;;;;29.95;21.50;;;307.30;1971.20;;;;;;4970738;28;20027;-75
2021/04/20 07:36:44;;;;;;;33.58;23.08;;;307.20;1971.20;;;;;;4970533;28;20105;-76
2021/04/20 07:39:19;;;;;;;28.13;20.88;;;282.10;1920.00;;;;;;4970445;28;20031;-76
2021/04/20 07:42:04;;;;;;;31.67;23.20;;;307.30;1945.60;;;;;;4970772;28;20106;-75
2021/04/20 07:44:39;;;;;;;26.42;20.67;;;307.30;1945.60;;;;;;4968009;28;20250;-75
2021/04/20 07:47:14;;;;;;;32.95;22.30;;;307.30;1945.60;;;;;;4970640;28;20417;-74
2021/04/20 07:50:18;;;;;;;31.88;23.10;;;307.40;1945.60;;;;;;4970349;28;20607;-75
2021/04/20 07:53:25;;;;;;;30.80;22.80;;;307.40;1945.60;;;;;;4969623;28;20106;-74
2021/04/20 07:56:06;;;;;;;31.60;23.42;;;307.50;1945.60;;;;;;4943059;28;20090;-75
2021/04/20 07:58:37;;;;;;;28.00;22.13;;;307.60;1971.20;;;;;;4948816;29;20023;-75
2021/04/20 08:01:26;;;;;;;28.30;22.70;;;307.50;1945.60;;;;;;4951065;28;20036;-75
2021/04/20 08:04:03;;;;;;;33.55;24.30;;;307.60;1945.60;;;;;;4981492;28;20125;-74
2021/04/20 08:06:33;;;;;;;33.65;26.38;;;307.60;1945.60;;;;;;4980559;28;20076;-76
2021/04/20 08:09:28;;;;;;;33.33;24.13;;;307.60;1945.60;;;;;;4980626;28;20437;-74
2021/04/20 08:12:08;;;;;;;33.38;23.08;;;307.70;1945.60;;;;;;4968215;28;20121;-74
2021/04/20 08:15:07;;;;;;;29.98;22.48;;;307.80;1920.00;;;;;;4979712;28;20028;-73
2021/04/20 08:17:48;;;;;;;30.08;22.38;;;307.80;1920.00;;;;;;4981005;28;20066;-74
2021/04/20 08:20:17;;;;;;;30.55;23.00;;;307.70;1945.60;;;;;;4980298;28;20015;-74
2021/04/20 08:22:45;;;;;;;27.23;21.95;;;307.60;1945.60;;;;;;4980525;28;20090;-74
2021/04/20 08:25:16;;;;;;;36.20;27.77;;;307.60;1945.60;;;;;;4980319;28;20030;-73
2021/04/20 08:28:01;;;;;;;30.77;21.00;;;307.80;1920.00;;;;;;4979717;28;20424;-74
2021/04/20 08:30:52;;;;;;;26.30;20.35;;;307.90;1920.00;;;;;;5042035;28;20471;-75
2021/04/20 08:33:24;;;;;;;28.48;20.98;;;307.90;1920.00;;;;;;5061628;28;20036;-75
2021/04/20 08:35:53;;;;;;;26.13;20.35;;;307.90;1894.40;;;;;;5060798;28;20051;-74
2021/04/20 08:38:44;;;;;;;28.10;20.83;;;307.90;1868.80;;;;;;5060919;28;20020;-73
2021/04/20 08:41:30;;;;;;;28.23;21.70;;;308.00;1894.40;;;;;;5061439;28;20025;-73
2021/04/20 08:44:20;;;;;;;32.63;21.75;;;308.00;1868.80;;;;;;5059477;28;20391;-76
2021/04/20 08:47:18;;;;;;;26.70;20.73;;;308.00;1894.40;;;;;;5062039;28;20471;-75
2021/04/20 08:49:52;;;;;;;29.67;20.92;;;308.10;1868.80;;;;;;5092768;28;20032;-77
2021/04/20 08:52:56;;;;;;;31.17;22.92;;;308.10;1868.80;;;;;;5062100;28;20053;-75
2021/04/20 08:56:03;;;;;;;28.98;20.65;;;308.00;1894.40;;;;;;5060928;28;20024;-75
2021/04/20 08:58:50;;;;;;;41.78;25.63;;;308.10;1868.80;;;;;;5038991;28;20037;-74
2021/04/20 09:01:46;;;;;;;25.23;20.65;;;308.10;1894.40;;;;;;5047662;28;20079;-75
2021/04/20 09:04:48;;;;;;;28.42;20.70;;;308.10;1868.80;;;;;;5023093;28;20040;-73
2021/04/20 09:07:27;;;;;;;28.23;21.05;;;308.10;1868.80;;;;;;5039860;28;20028;-74
2021/04/20 09:09:55;;;;;;;25.65;20.30;;;332.80;1920.00;;;;;;5028439;28;20041;-73
2021/04/20 09:12:22;;;;;;;30.75;22.42;;;332.80;1920.00;;;;;;5038962;28;20570;-75
2021/04/20 09:14:49;;;;;;;25.67;19.45;;;332.80;1920.00;;;;;;5036180;28;20457;-75
2021/04/20 09:17:21;;;;;;;31.17;24.52;;;332.80;1868.80;;;;;;5037420;28;20044;-77
2021/04/20 09:19:58;;;;;;;24.98;20.30;;;333.00;1868.80;;;;;;5038314;28;20851;-76
2021/04/20 09:22:32;;;;;;;25.13;20.05;;;333.10;1868.80;;;;;;5038109;28;20136;-75
2021/04/20 09:25:05;;;;;;;32.38;24.60;;;333.10;1843.20;;;;;;5047561;28;20120;-76
2021/04/20 09:27:49;;;;;;;26.20;21.42;;;333.00;1868.80;;;;;;5027666;28;20056;-76
2021/04/20 09:30:20;;;;;;;30.23;22.35;;;333.10;1843.20;;;;;;5038575;28;20055;-75
2021/04/20 09:32:55;;;;;;;26.67;20.20;;;333.10;1843.20;;;;;;5038563;28;20052;-74
2021/04/20 09:35:21;;;;;;;29.98;20.95;;;333.10;1868.80;;;;;;5040483;28;20037;-74
2021/04/20 09:37:49;;;;;;;25.08;20.40;;;333.10;1843.20;;;;;;5057428;28;20049;-75
2021/04/20 09:40:20;;;;;;;27.52;21.20;;;333.20;1843.20;;;;;;5059508;28;20024;-72
2021/04/20 09:42:51;;;;;;;29.83;21.90;;;333.60;1843.20;;;;;;5062893;28;20036;-73
2021/04/20 09:45:34;;;;;;;25.88;19.75;;;333.40;1843.20;;;;;;5064081;28;20033;-73
2021/04/20 09:48:19;;;;;;;27.15;22.00;;;333.40;1766.40;;;;;;5064719;28;20107;-73
2021/04/20 09:51:06;;;;;;;27.90;22.50;;;333.40;1766.40;;;;;;5096157;28;20025;-74
2021/04/20 09:53:50;;;;;;;25.80;20.63;;;333.50;1740.80;;;;;;5072862;28;20169;-74
2021/04/20 09:56:21;;;;;;;23.67;20.35;;;333.50;1766.40;;;;;;5072903;28;20061;-74
2021/04/20 09:58:48;;;;;;;22.67;18.40;;;333.60;1740.80;;;;;;5073013;28;20025;-74
2021/04/20 10:01:55;;;;;;;21.77;18.52;;;333.70;1715.20;;;;;;5073982;28;20486;-74
2021/04/20 10:04:42;;;;;;;21.08;17.00;;;333.70;1664.00;;;;;;5073887;28;20032;-75
2021/04/20 10:07:42;;;;;;;24.83;19.88;;;333.70;1689.60;;;;;;5072917;28;20073;-74
2021/04/20 10:10:34;;;;;;;27.58;22.35;;;333.70;1664.00;;;;;;5074005;28;20103;-73
2021/04/20 10:13:25;;;;;;;32.03;26.30;;;333.70;1689.60;;;;;;5073765;28;20505;-73
2021/04/20 10:16:21;;;;;;;28.63;23.25;;;333.70;1715.20;;;;;;5073811;28;20017;-74
2021/04/20 10:18:56;;;;;;;30.65;23.75;;;333.70;1664.00;;;;;;5073765;28;20029;-73
2021/04/20 10:21:37;;;;;;;23.42;18.88;;;333.60;1766.40;;;;;;5072341;28;20484;-73
2021/04/20 10:24:24;;;;;;;27.48;20.83;;;333.50;1766.40;;;;;;5072259;28;20071;-73
2021/04/20 10:26:56;;;;;;;31.65;24.88;;;333.50;1792.00;;;;;;5073413;28;20086;-73
2021/04/20 10:29:22;;;;;;;28.50;21.98;;;333.60;1792.00;;;;;;5073305;28;20029;-73
2021/04/20 10:32:06;;;;;;;27.90;21.05;;;333.60;1766.40;;;;;;5073464;28;20024;-73
2021/04/20 10:34:35;;;;;;;32.63;24.27;;;333.50;1792.00;;;;;;5073175;28;20396;-73
2021/04/20 10:37:01;;;;;;;27.60;22.48;;;333.50;1792.00;;;;;;5073192;28;20071;-73
2021/04/20 10:39:29;;;;;;;27.58;20.58;;;333.50;1766.40;;;;;;5073445;28;20021;-73
2021/04/20 10:41:56;;;;;;;26.38;21.27;;;333.50;1766.40;;;;;;5073207;28;20013;-73
2021/04/20 10:44:25;;;;;;;26.40;21.85;;;333.40;1715.20;;;;;;5073002;28;20048;-73
2021/04/20 10:46:56;;;;;;;27.95;21.38;;;333.50;1740.80;;;;;;5073185;28;20024;-74
2021/04/20 10:49:24;;;;;;;21.35;18.67;;;333.50;1740.80;;;;;;5072960;28;20035;-73
2021/04/20 10:51:59;;;;;;;28.08;21.30;;;333.50;1740.80;;;;;;5072270;28;20097;-73
2021/04/20 10:54:35;;;;;;;21.27;18.65;;;333.60;1740.80;;;;;;5071527;28;20428;-73
2021/04/20 10:57:02;;;;;;;21.55;18.05;;;333.60;1715.20;;;;;;5072843;28;20482;-73
2021/04/20 10:59:34;;;;;;;23.85;18.70;;;333.60;1715.20;;;;;;5072994;28;20017;-73
2021/04/20 11:02:04;;;;;;;21.88;17.17;;;333.70;1689.60;;;;;;5072878;28;20514;-73
2021/04/20 11:04:33;;;;;;;20.67;17.00;;;333.70;1664.00;;;;;;5072786;28;20125;-74
2021/04/20 11:07:00;;;;;;;23.20;17.65;;;358.40;1638.40;;;;;;5072848;28;20253;-73
2021/04/20 11:09:33;;;;;;;21.33;18.30;;;333.70;1664.00;;;;;;5072885;28;20020;-73
2021/04/20 11:11:59;;;;;;;23.63;18.90;;;333.70;1689.60;;;;;;5071545;28;20028;-73
2021/04/20 11:14:39;;;;;;;37.38;24.50;;;333.30;1689.60;;;;;;5071469;28;20033;-73
2021/04/20 11:17:13;;;;;;;26.35;19.88;;;358.50;1664.00;;;;;;5071155;28;20048;-73
2021/04/20 11:19:48;;;;;;;30.55;23.25;;;358.50;1664.00;;;;;;5072684;28;20174;-73
2021/04/20 11:22:17;;;;;;;24.35;17.98;;;358.60;1664.00;;;;;;5071054;28;20025;-74
2021/04/20 11:24:49;;;;;;;22.10;17.80;;;358.60;1638.40;;;;;;5072374;28;20033;-73
2021/04/20 11:27:19;;;;;;;29.25;22.85;;;358.50;1664.00;;;;;;5071129;28;20111;-73
2021/04/20 11:29:58;;;;;;;40.30;30.70;;;358.50;1689.60;;;;;;5070960;28;20035;-73
2021/04/20 11:32:25;;;;;;;32.08;25.48;;;358.40;1664.00;;;;;;5072277;28;20025;-73
2021/04/20 11:34:54;;;;;;;37.55;27.30;;;333.70;1689.60;;;;;;5070920;28;20021;-73
2021/04/20 11:37:23;;;;;;;44.70;33.35;;;333.70;1715.20;;;;;;5070864;28;20078;-73
2021/04/20 11:39:55;;;;;;;50.00;37.38;;;333.60;1740.80;;;;;;5072351;28;20034;-74
2021/04/20 11:42:29;;;;;;;43.33;28.10;;;;;;;;;;5070728;28;20037;-73
2021/04/20 11:44:58;;;;;;;36.90;23.50;;;333.60;1740.80;;;;;;5071948;28;20024;-73
2021/04/20 11:47:26;;;;;;;32.30;24.60;;;333.60;1766.40;;;;;;5072018;28;20028;-73
2021/04/20 11:50:11;;;;;;;29.17;22.92;;;333.50;1792.00;;;;;;5071827;28;20036;-74
2021/04/20 11:52:39;;;;;;;27.40;20.55;;;333.50;1792.00;;;;;;5072071;28;20439;-73
2021/04/20 11:55:12;;;;;;;27.77;21.23;;;333.50;1792.00;;;;;;5070562;28;20433;-73
2021/04/20 11:57:44;;;;;;;23.17;18.65;;;333.50;1766.40;;;;;;5070768;28;20024;-73
2021/04/20 12:00:11;;;;;;;27.58;19.83;;;333.60;1689.60;;;;;;5072033;28;20471;-73
2021/04/20 12:02:38;;;;;;;27.50;19.33;;;333.60;1689.60;;;;;;5071783;28;20033;-73
2021/04/20 12:05:10;;;;;;;24.73;17.90;;;333.60;1638.40;;;;;;5069424;28;20036;-73
2021/04/20 12:07:38;;;;;;;21.45;16.60;;;333.60;1612.80;;;;;;5071835;28;20016;-73
2021/04/20 12:10:14;;;;;;;20.00;16.42;;;358.40;1638.40;;;;;;5071249;28;20089;-73
2021/04/20 12:12:40;;;;;;;20.55;15.95;;;358.50;1612.80;;;;;;5070245;28;20035;-73
2021/04/20 12:15:08;;;;;;;22.45;17.08;;;358.60;1612.80;;;;;;5070224;28;20032;-73
2021/04/20 12:17:38;;;;;;;21.60;17.20;;;358.70;1638.40;;;;;;5071069;28;20053;-72
2021/04/20 12:20:13;;;;;;;18.85;15.80;;;358.80;1612.80;;;;;;5069987;28;20368;-73
2021/04/20 12:22:40;;;;;;;17.80;15.32;;;358.90;1587.20;;;;;;5070037;28;20471;-73
2021/04/20 12:25:07;;;;;;;23.45;17.70;;;358.90;1587.20;;;;;;5071318;28;20032;-74
2021/04/20 12:27:34;;;;;;;22.40;17.48;;;358.90;1612.80;;;;;;5071001;28;20379;-74